Terminal Aerodrome Forecast
Issued by NWS

Home | Current Version | Previous Version | Text Only | Print | Product List | Glossary On
Versions: 1 2 3 4 5 6 7 8 9 10 11 12 13 14 15 16
000
FTUS43 KFGF 241100
TAFBJI
TAF
KBJI 241126Z 2412/2512 12008KT 4SM -RASN OVC004
      TEMPO 2412/2415 P6SM NSW OVC015
     FM241500 12006KT P6SM OVC010
      TEMPO 2415/2418 4SM -RA OVC015
     FM241800 12005KT 4SM -RA BR OVC010
     FM250000 13005KT P6SM BKN015=

USA.gov is the U.S. government's official web portal to all federal, state and local government web resources and services.